sensor_id;sensor_type;location;lat;lon;timestamp;pressure;altitude;pressure_sealevel;temperature;humidity
24892;BME280;12954;50.688;10.908;2022-08-11T00:01:59;96364.81;;;16.34;41.47
24892;BME280;12954;50.688;10.908;2022-08-11T00:04:35;96359.75;;;16.28;41.94
24892;BME280;12954;50.688;10.908;2022-08-11T00:07:05;96368.91;;;16.32;41.86
24892;BME280;12954;50.688;10.908;2022-08-11T00:09:36;96295.31;;;15.86;41.75
24892;BME280;12954;50.688;10.908;2022-08-11T00:12:13;96364.88;;;16.29;42.12
24892;BME280;12954;50.688;10.908;2022-08-11T00:14:42;96363.88;;;16.25;42.02
24892;BME280;12954;50.688;10.908;2022-08-11T00:17:13;96341.47;;;16.09;42.33
24892;BME280;12954;50.688;10.908;2022-08-11T00:19:46;96344.06;;;16.01;42.32
24892;BME280;12954;50.688;10.908;2022-08-11T00:22:37;96312.75;;;15.85;42.34
24892;BME280;12954;50.688;10.908;2022-08-11T00:25:10;96360.53;;;16.09;42.43
24892;BME280;12954;50.688;10.908;2022-08-11T00:27:40;96357.69;;;16.01;42.48
24892;BME280;12954;50.688;10.908;2022-08-11T00:30:11;96357.69;;;16.01;42.33
24892;BME280;12954;50.688;10.908;2022-08-11T00:32:42;96359.31;;;16.02;42.42
24892;BME280;12954;50.688;10.908;2022-08-11T00:35:15;96357.75;;;15.96;42.60
24892;BME280;12954;50.688;10.908;2022-08-11T00:38:05;96344.28;;;15.86;42.56
24892;BME280;12954;50.688;10.908;2022-08-11T00:40:38;96329.59;;;15.68;42.30
24892;BME280;12954;50.688;10.908;2022-08-11T00:43:18;96364.22;;;16.00;42.56
24892;BME280;12954;50.688;10.908;2022-08-11T00:46:08;96351.72;;;15.99;42.73
24892;BME280;12954;50.688;10.908;2022-08-11T00:48:48;96354.00;;;15.92;42.70
24892;BME280;12954;50.688;10.908;2022-08-11T00:51:28;96355.69;;;15.88;42.68
24892;BME280;12954;50.688;10.908;2022-08-11T00:54:42;96358.50;;;15.83;42.84
24892;BME280;12954;50.688;10.908;2022-08-11T01:00:32;96353.41;;;15.76;42.83
24892;BME280;12954;50.688;10.908;2022-08-11T01:03:20;96359.66;;;15.77;42.96
24892;BME280;12954;50.688;10.908;2022-08-11T01:06:25;96347.81;;;15.68;43.25
24892;BME280;12954;50.688;10.908;2022-08-11T01:09:19;96360.31;;;15.69;43.39
24892;BME280;12954;50.688;10.908;2022-08-11T01:12:20;96348.19;;;15.61;43.43
24892;BME280;12954;50.688;10.908;2022-08-11T01:30:51;96361.13;;;15.50;43.72
24892;BME280;12954;50.688;10.908;2022-08-11T01:37:11;96356.31;;;15.42;43.66
24892;BME280;12954;50.688;10.908;2022-08-11T01:40:19;96345.78;;;15.36;43.78
24892;BME280;12954;50.688;10.908;2022-08-11T01:46:29;96338.72;;;15.11;43.63
24892;BME280;12954;50.688;10.908;2022-08-11T01:49:06;96362.00;;;15.22;43.94
24892;BME280;12954;50.688;10.908;2022-08-11T01:52:07;96328.50;;;15.03;43.92
24892;BME280;12954;50.688;10.908;2022-08-11T01:54:42;96336.72;;;14.98;43.94
24892;BME280;12954;50.688;10.908;2022-08-11T01:57:23;96309.13;;;14.86;44.16
24892;BME280;12954;50.688;10.908;2022-08-11T02:00:04;96345.53;;;14.85;44.28
24892;BME280;12954;50.688;10.908;2022-08-11T02:02:40;96351.81;;;15.09;44.34
24892;BME280;12954;50.688;10.908;2022-08-11T02:05:26;96358.31;;;15.08;44.50
24892;BME280;12954;50.688;10.908;2022-08-11T02:08:02;96353.19;;;15.07;44.65
24892;BME280;12954;50.688;10.908;2022-08-11T02:10:42;96352.97;;;15.03;44.57
24892;BME280;12954;50.688;10.908;2022-08-11T02:13:39;96355.69;;;15.03;44.69
24892;BME280;12954;50.688;10.908;2022-08-11T02:16:20;96356.78;;;15.02;44.54
24892;BME280;12954;50.688;10.908;2022-08-11T02:19:04;96343.31;;;14.92;44.78
24892;BME280;12954;50.688;10.908;2022-08-11T02:22:00;96319.91;;;14.72;44.77
24892;BME280;12954;50.688;10.908;2022-08-11T02:24:56;96335.72;;;14.89;45.05
24892;BME280;12954;50.688;10.908;2022-08-11T02:27:37;96289.84;;;14.64;45.17
24892;BME280;12954;50.688;10.908;2022-08-11T02:30:11;96349.25;;;14.94;44.88
24892;BME280;12954;50.688;10.908;2022-08-11T02:32:47;96338.97;;;14.91;44.95
24892;BME280;12954;50.688;10.908;2022-08-11T02:35:41;96341.16;;;14.89;45.19
24892;BME280;12954;50.688;10.908;2022-08-11T02:38:21;96341.69;;;14.91;45.09
24892;BME280;12954;50.688;10.908;2022-08-11T02:41:01;96344.47;;;14.86;45.30
24892;BME280;12954;50.688;10.908;2022-08-11T02:44:07;96347.75;;;14.83;45.28
24892;BME280;12954;50.688;10.908;2022-08-11T02:47:00;96330.53;;;14.69;45.53
24892;BME280;12954;50.688;10.908;2022-08-11T02:49:43;96349.72;;;14.77;45.55
24892;BME280;12954;50.688;10.908;2022-08-11T02:52:39;96344.28;;;14.77;45.41
24892;BME280;12954;50.688;10.908;2022-08-11T02:55:23;96344.56;;;14.76;45.59
24892;BME280;12954;50.688;10.908;2022-08-11T02:58:25;96317.56;;;14.61;45.59
24892;BME280;12954;50.688;10.908;2022-08-11T03:01:05;96339.41;;;14.74;45.56
24892;BME280;12954;50.688;10.908;2022-08-11T03:03:45;96342.44;;;14.73;45.64
24892;BME280;12954;50.688;10.908;2022-08-11T03:06:28;96306.06;;;14.40;45.77
24892;BME280;12954;50.688;10.908;2022-08-11T03:09:09;96342.19;;;14.69;45.67
24892;BME280;12954;50.688;10.908;2022-08-11T03:11:49;96341.97;;;14.66;45.79
24892;BME280;12954;50.688;10.908;2022-08-11T03:14:47;96342.53;;;14.63;45.91
24892;BME280;12954;50.688;10.908;2022-08-11T03:17:36;96333.63;;;14.57;45.97
24892;BME280;12954;50.688;10.908;2022-08-11T03:20:20;96338.25;;;14.57;46.02
24892;BME280;12954;50.688;10.908;2022-08-11T03:23:04;96340.44;;;14.55;45.97
24892;BME280;12954;50.688;10.908;2022-08-11T03:25:50;96340.44;;;14.55;45.88
24892;BME280;12954;50.688;10.908;2022-08-11T03:28:30;96339.63;;;14.54;45.85
24892;BME280;12954;50.688;10.908;2022-08-11T03:31:15;96341.25;;;14.55;45.96
24892;BME280;12954;50.688;10.908;2022-08-11T03:33:48;96337.50;;;14.51;45.97
24892;BME280;12954;50.688;10.908;2022-08-11T03:36:53;96338.56;;;14.50;45.97
24892;BME280;12954;50.688;10.908;2022-08-11T03:39:53;96327.06;;;14.29;45.87
24892;BME280;12954;50.688;10.908;2022-08-11T03:42:28;96349.72;;;14.43;45.97
24892;BME280;12954;50.688;10.908;2022-08-11T03:45:06;96357.09;;;14.43;46.01
24892;BME280;12954;50.688;10.908;2022-08-11T03:47:59;96123.13;;;12.92;46.03
24892;BME280;12954;50.688;10.908;2022-08-11T03:50:52;96294.78;;;13.99;46.30
24892;BME280;12954;50.688;10.908;2022-08-11T03:53:47;96356.59;;;14.36;46.70
24892;BME280;12954;50.688;10.908;2022-08-11T04:03:07;96356.66;;;14.31;46.97
24892;BME280;12954;50.688;10.908;2022-08-11T04:09:14;96356.91;;;14.29;46.63
24892;BME280;12954;50.688;10.908;2022-08-11T04:15:36;96356.97;;;14.24;46.81
24892;BME280;12954;50.688;10.908;2022-08-11T04:18:54;96357.00;;;14.19;46.76
24892;BME280;12954;50.688;10.908;2022-08-11T04:24:50;96352.91;;;14.22;47.11
24892;BME280;12954;50.688;10.908;2022-08-11T04:27:52;96358.59;;;14.25;46.91
24892;BME280;12954;50.688;10.908;2022-08-11T04:30:45;96357.47;;;14.26;47.04
24892;BME280;12954;50.688;10.908;2022-08-11T04:33:57;96349.91;;;14.23;47.39
24892;BME280;12954;50.688;10.908;2022-08-11T04:36:40;96350.72;;;14.24;47.11
24892;BME280;12954;50.688;10.908;2022-08-11T04:39:45;96348.31;;;14.22;47.08
24892;BME280;12954;50.688;10.908;2022-08-11T04:45:52;96349.06;;;14.28;47.45
24892;BME280;12954;50.688;10.908;2022-08-11T04:48:46;96345.22;;;14.34;47.51
24892;BME280;12954;50.688;10.908;2022-08-11T04:51:52;96358.75;;;14.39;47.23
24892;BME280;12954;50.688;10.908;2022-08-11T04:55:19;96333.53;;;14.33;47.55
24892;BME280;12954;50.688;10.908;2022-08-11T04:58:18;96350.84;;;14.42;47.58
24892;BME280;12954;50.688;10.908;2022-08-11T05:01:19;96343.78;;;14.41;47.55
24892;BME280;12954;50.688;10.908;2022-08-11T05:10:36;96356.09;;;14.63;47.65
24892;BME280;12954;50.688;10.908;2022-08-11T05:13:23;96255.88;;;14.09;47.53
24892;BME280;12954;50.688;10.908;2022-08-11T05:16:12;96320.69;;;14.49;47.40
24892;BME280;12954;50.688;10.908;2022-08-11T05:19:01;96357.56;;;14.79;47.70
24892;BME280;12954;50.688;10.908;2022-08-11T05:21:53;96354.00;;;14.83;47.90
24892;BME280;12954;50.688;10.908;2022-08-11T05:24:42;96359.66;;;14.87;47.96
24892;BME280;12954;50.688;10.908;2022-08-11T05:27:35;96306.13;;;14.64;47.97
24892;BME280;12954;50.688;10.908;2022-08-11T05:30:25;96353.03;;;14.98;47.76
24892;BME280;12954;50.688;10.908;2022-08-11T05:33:16;96355.69;;;15.03;47.87
24892;BME280;12954;50.688;10.908;2022-08-11T05:36:10;96339.94;;;15.00;47.97
24892;BME280;12954;50.688;10.908;2022-08-11T05:38:49;96361.00;;;15.13;48.26
24892;BME280;12954;50.688;10.908;2022-08-11T05:41:38;96366.38;;;15.18;48.13
24892;BME280;12954;50.688;10.908;2022-08-11T05:44:27;96340.94;;;15.09;48.15
24892;BME280;12954;50.688;10.908;2022-08-11T05:47:21;96367.00;;;15.34;48.25
24892;BME280;12954;50.688;10.908;2022-08-11T05:50:10;96376.19;;;15.38;48.20
24892;BME280;12954;50.688;10.908;2022-08-11T05:52:59;96366.91;;;15.44;48.13
24892;BME280;12954;50.688;10.908;2022-08-11T05:55:46;96367.63;;;15.49;48.30
24892;BME280;12954;50.688;10.908;2022-08-11T05:58:35;96372.50;;;15.52;48.25
24892;BME280;12954;50.688;10.908;2022-08-11T06:01:11;96363.16;;;15.58;48.14
24892;BME280;12954;50.688;10.908;2022-08-11T06:03:42;96362.81;;;15.65;48.20
24892;BME280;12954;50.688;10.908;2022-08-11T06:06:26;96364.69;;;15.70;48.04
24892;BME280;12954;50.688;10.908;2022-08-11T06:08:57;96309.88;;;15.39;48.02
24892;BME280;12954;50.688;10.908;2022-08-11T06:11:27;96324.59;;;15.56;47.69
24892;BME280;12954;50.688;10.908;2022-08-11T06:14:10;96365.63;;;15.97;47.64
24892;BME280;12954;50.688;10.908;2022-08-11T06:16:41;96271.13;;;15.47;47.56
24892;BME280;12954;50.688;10.908;2022-08-11T06:19:11;96367.81;;;16.14;47.68
24892;BME280;12954;50.688;10.908;2022-08-11T06:21:44;96359.00;;;16.22;47.56
24892;BME280;12954;50.688;10.908;2022-08-11T06:24:15;96358.44;;;16.25;47.42
24892;BME280;12954;50.688;10.908;2022-08-11T06:26:49;96366.91;;;16.37;47.13
24892;BME280;12954;50.688;10.908;2022-08-11T06:29:45;96290.81;;;15.95;47.28
24892;BME280;12954;50.688;10.908;2022-08-11T06:32:25;96366.75;;;16.47;47.04
24892;BME280;12954;50.688;10.908;2022-08-11T06:35:05;96329.19;;;16.31;46.84
24892;BME280;12954;50.688;10.908;2022-08-11T06:37:44;96372.56;;;16.59;46.73
24892;BME280;12954;50.688;10.908;2022-08-11T06:40:32;96362.69;;;16.63;46.30
24892;BME280;12954;50.688;10.908;2022-08-11T06:43:10;96370.44;;;16.70;46.36
24892;BME280;12954;50.688;10.908;2022-08-11T06:45:50;96336.69;;;16.52;46.10
24892;BME280;12954;50.688;10.908;2022-08-11T06:48:23;96368.38;;;16.81;45.91
24892;BME280;12954;50.688;10.908;2022-08-11T06:50:56;96364.44;;;16.87;45.70
24892;BME280;12954;50.688;10.908;2022-08-11T06:53:43;96329.06;;;16.68;45.46
24892;BME280;12954;50.688;10.908;2022-08-11T06:56:30;96358.78;;;16.97;45.10
24892;BME280;12954;50.688;10.908;2022-08-11T06:59:37;96367.38;;;17.04;44.99
24892;BME280;12954;50.688;10.908;2022-08-11T07:02:28;96369.75;;;17.10;44.59
24892;BME280;12954;50.688;10.908;2022-08-11T07:05:03;96337.50;;;16.99;44.46
24892;BME280;12954;50.688;10.908;2022-08-11T07:08:06;96367.84;;;17.25;43.91
24892;BME280;12954;50.688;10.908;2022-08-11T07:14:26;96364.72;;;17.31;43.98
24892;BME280;12954;50.688;10.908;2022-08-11T07:17:15;96371.78;;;17.46;43.82
24892;BME280;12954;50.688;10.908;2022-08-11T07:19:50;96373.78;;;17.54;43.52
24892;BME280;12954;50.688;10.908;2022-08-11T07:22:40;96381.84;;;17.59;43.43
24892;BME280;12954;50.688;10.908;2022-08-11T07:25:38;96373.25;;;17.65;43.13
24892;BME280;12954;50.688;10.908;2022-08-11T07:28:26;96364.94;;;17.70;43.23
24892;BME280;12954;50.688;10.908;2022-08-11T07:31:15;96368.09;;;17.77;42.90
24892;BME280;12954;50.688;10.908;2022-08-11T07:33:51;96364.63;;;17.86;42.58
24892;BME280;12954;50.688;10.908;2022-08-11T07:36:38;96368.88;;;17.92;42.37
24892;BME280;12954;50.688;10.908;2022-08-11T07:39:15;96351.50;;;17.88;42.27
24892;BME280;12954;50.688;10.908;2022-08-11T07:41:49;96372.88;;;18.08;42.32
24892;BME280;12954;50.688;10.908;2022-08-11T07:44:20;96372.66;;;18.18;42.21
24892;BME280;12954;50.688;10.908;2022-08-11T07:46:59;96346.97;;;18.19;41.85
24892;BME280;12954;50.688;10.908;2022-08-11T07:49:44;96365.69;;;18.34;41.50
24892;BME280;12954;50.688;10.908;2022-08-11T07:52:33;96366.13;;;18.50;41.31
24892;BME280;12954;50.688;10.908;2022-08-11T07:55:10;96371.38;;;18.60;41.27
24892;BME280;12954;50.688;10.908;2022-08-11T07:57:42;96369.81;;;18.67;40.88
24892;BME280;12954;50.688;10.908;2022-08-11T08:00:48;96354.44;;;18.58;41.09
24892;BME280;12954;50.688;10.908;2022-08-11T08:03:37;96371.16;;;18.78;40.62
24892;BME280;12954;50.688;10.908;2022-08-11T08:06:23;96369.28;;;18.87;40.00
24892;BME280;12954;50.688;10.908;2022-08-11T08:09:11;96347.84;;;18.81;40.15
24892;BME280;12954;50.688;10.908;2022-08-11T08:12:01;96373.25;;;19.04;39.84
24892;BME280;12954;50.688;10.908;2022-08-11T08:14:49;96376.84;;;19.13;39.51
24892;BME280;12954;50.688;10.908;2022-08-11T08:17:36;96330.75;;;18.98;39.17
24892;BME280;12954;50.688;10.908;2022-08-11T08:20:41;96376.28;;;19.33;39.30
24892;BME280;12954;50.688;10.908;2022-08-11T08:23:13;96350.81;;;19.24;39.03
24892;BME280;12954;50.688;10.908;2022-08-11T08:25:44;96359.69;;;19.38;38.73
24892;BME280;12954;50.688;10.908;2022-08-11T08:28:16;96385.72;;;19.58;38.50
24892;BME280;12954;50.688;10.908;2022-08-11T08:30:48;96364.16;;;19.56;38.03
24892;BME280;12954;50.688;10.908;2022-08-11T08:33:20;96379.81;;;19.81;37.61
24892;BME280;12954;50.688;10.908;2022-08-11T08:35:52;96374.03;;;19.91;37.22
24892;BME280;12954;50.688;10.908;2022-08-11T08:38:39;96355.81;;;19.78;37.13
24892;BME280;12954;50.688;10.908;2022-08-11T08:41:09;96373.41;;;20.03;37.22
24892;BME280;12954;50.688;10.908;2022-08-11T08:43:44;96379.75;;;20.21;36.27
24892;BME280;12954;50.688;10.908;2022-08-11T08:46:19;96369.06;;;20.28;36.21
24892;BME280;12954;50.688;10.908;2022-08-11T08:48:49;96373.91;;;20.31;36.03
24892;BME280;12954;50.688;10.908;2022-08-11T08:51:20;96382.81;;;20.36;36.02
24892;BME280;12954;50.688;10.908;2022-08-11T08:54:24;96359.56;;;20.34;35.94
24892;BME280;12954;50.688;10.908;2022-08-11T08:56:55;96376.78;;;20.60;35.46
24892;BME280;12954;50.688;10.908;2022-08-11T08:59:26;96394.22;;;20.64;35.58
24892;BME280;12954;50.688;10.908;2022-08-11T09:02:15;96371.47;;;20.72;35.15
24892;BME280;12954;50.688;10.908;2022-08-11T09:05:00;96358.56;;;20.81;34.85
24892;BME280;12954;50.688;10.908;2022-08-11T09:07:30;96365.66;;;20.91;34.62
24892;BME280;12954;50.688;10.908;2022-08-11T09:10:07;96344.84;;;20.81;34.53
24892;BME280;12954;50.688;10.908;2022-08-11T09:12:38;96364.50;;;21.00;34.50
24892;BME280;12954;50.688;10.908;2022-08-11T09:15:11;96352.22;;;21.06;34.58
24892;BME280;12954;50.688;10.908;2022-08-11T09:17:48;96308.84;;;20.91;34.05
24892;BME280;12954;50.688;10.908;2022-08-11T09:20:19;96352.97;;;21.24;33.88
24892;BME280;12954;50.688;10.908;2022-08-11T09:22:50;96302.22;;;20.92;33.90
24892;BME280;12954;50.688;10.908;2022-08-11T09:25:58;96334.06;;;21.23;33.62
24892;BME280;12954;50.688;10.908;2022-08-11T09:28:46;96353.03;;;21.45;33.75
24892;BME280;12954;50.688;10.908;2022-08-11T09:31:17;96353.97;;;21.49;33.56
24892;BME280;12954;50.688;10.908;2022-08-11T09:33:52;96355.75;;;21.53;33.47
24892;BME280;12954;50.688;10.908;2022-08-11T09:36:21;96351.19;;;21.57;33.55
24892;BME280;12954;50.688;10.908;2022-08-11T09:39:08;96344.06;;;21.65;33.41
24892;BME280;12954;50.688;10.908;2022-08-11T09:41:58;96340.44;;;21.73;33.27
24892;BME280;12954;50.688;10.908;2022-08-11T09:44:32;96340.25;;;21.78;33.10
24892;BME280;12954;50.688;10.908;2022-08-11T09:47:22;96347.16;;;21.84;33.13
24892;BME280;12954;50.688;10.908;2022-08-11T09:49:54;96341.28;;;21.94;32.64
24892;BME280;12954;50.688;10.908;2022-08-11T09:52:28;96329.63;;;21.97;32.54
24892;BME280;12954;50.688;10.908;2022-08-11T09:54:58;96331.34;;;22.02;32.36
24892;BME280;12954;50.688;10.908;2022-08-11T09:57:28;96321.63;;;22.04;32.61
24892;BME280;12954;50.688;10.908;2022-08-11T10:00:15;96332.41;;;22.18;32.36
24892;BME280;12954;50.688;10.908;2022-08-11T10:02:46;96328.91;;;22.30;31.69
24892;BME280;12954;50.688;10.908;2022-08-11T10:05:18;96330.97;;;22.33;31.06
24892;BME280;12954;50.688;10.908;2022-08-11T10:08:04;96333.16;;;22.39;30.90
24892;BME280;12954;50.688;10.908;2022-08-11T10:10:35;96344.66;;;22.41;30.97
24892;BME280;12954;50.688;10.908;2022-08-11T10:13:07;96325.53;;;22.45;30.84
24892;BME280;12954;50.688;10.908;2022-08-11T10:15:58;96299.97;;;22.44;30.27
24892;BME280;12954;50.688;10.908;2022-08-11T10:18:47;96290.91;;;22.44;30.08
24892;BME280;12954;50.688;10.908;2022-08-11T10:21:28;96310.44;;;22.63;30.30
24892;BME280;12954;50.688;10.908;2022-08-11T10:23:58;96324.09;;;22.71;30.21
24892;BME280;12954;50.688;10.908;2022-08-11T10:26:47;96309.81;;;22.78;30.06
24892;BME280;12954;50.688;10.908;2022-08-11T10:29:27;96304.22;;;22.87;30.02
24892;BME280;12954;50.688;10.908;2022-08-11T10:32:19;96306.88;;;22.95;30.15
24892;BME280;12954;50.688;10.908;2022-08-11T10:35:27;96294.63;;;23.05;29.95
24892;BME280;12954;50.688;10.908;2022-08-11T10:37:57;96300.03;;;23.13;29.94
24892;BME280;12954;50.688;10.908;2022-08-11T10:40:36;96281.69;;;23.17;29.18
24892;BME280;12954;50.688;10.908;2022-08-11T10:43:06;96287.41;;;23.24;28.52
24892;BME280;12954;50.688;10.908;2022-08-11T10:45:59;96283.28;;;23.18;29.04
24892;BME280;12954;50.688;10.908;2022-08-11T10:48:56;96292.91;;;23.24;29.47
24892;BME280;12954;50.688;10.908;2022-08-11T10:51:28;96278.25;;;23.33;29.44
24892;BME280;12954;50.688;10.908;2022-08-11T10:54:20;96284.56;;;23.45;29.00
24892;BME280;12954;50.688;10.908;2022-08-11T10:57:07;96287.78;;;23.47;28.36
24892;BME280;12954;50.688;10.908;2022-08-11T10:59:54;96294.09;;;23.48;28.58
24892;BME280;12954;50.688;10.908;2022-08-11T11:02:23;96289.06;;;23.50;28.63
24892;BME280;12954;50.688;10.908;2022-08-11T11:05:02;96290.63;;;23.51;28.58
24892;BME280;12954;50.688;10.908;2022-08-11T11:07:40;96279.03;;;23.57;28.55
24892;BME280;12954;50.688;10.908;2022-08-11T11:10:14;96267.91;;;23.54;28.77
24892;BME280;12954;50.688;10.908;2022-08-11T11:12:45;96274.56;;;23.65;28.20
24892;BME280;12954;50.688;10.908;2022-08-11T11:15:35;96276.28;;;23.69;28.48
24892;BME280;12954;50.688;10.908;2022-08-11T11:18:23;96258.81;;;23.77;28.19
24892;BME280;12954;50.688;10.908;2022-08-11T11:20:55;96264.88;;;23.83;27.92
24892;BME280;12954;50.688;10.908;2022-08-11T11:23:31;96259.34;;;23.83;28.05
24892;BME280;12954;50.688;10.908;2022-08-11T11:26:30;96262.00;;;23.92;28.45
24892;BME280;12954;50.688;10.908;2022-08-11T11:32:16;96249.31;;;24.15;27.83
24892;BME280;12954;50.688;10.908;2022-08-11T11:35:09;96223.06;;;23.93;27.92
24892;BME280;12954;50.688;10.908;2022-08-11T11:37:41;96229.00;;;23.95;27.88
24892;BME280;12954;50.688;10.908;2022-08-11T11:40:32;96260.47;;;24.34;27.50
24892;BME280;12954;50.688;10.908;2022-08-11T11:43:03;96239.56;;;24.33;27.35
24892;BME280;12954;50.688;10.908;2022-08-11T11:45:33;96254.38;;;24.41;27.43
24892;BME280;12954;50.688;10.908;2022-08-11T11:48:02;96245.56;;;24.51;27.78
24892;BME280;12954;50.688;10.908;2022-08-11T11:50:34;96236.66;;;24.57;27.72
24892;BME280;12954;50.688;10.908;2022-08-11T11:53:05;96241.34;;;24.69;27.58
24892;BME280;12954;50.688;10.908;2022-08-11T11:55:36;96239.66;;;24.80;27.70
24892;BME280;12954;50.688;10.908;2022-08-11T11:58:05;96228.09;;;24.90;27.28
24892;BME280;12954;50.688;10.908;2022-08-11T12:00:52;96238.53;;;24.97;26.86
24892;BME280;12954;50.688;10.908;2022-08-11T12:03:38;96229.44;;;24.96;26.71
24892;BME280;12954;50.688;10.908;2022-08-11T12:06:08;96234.06;;;24.92;27.15
24892;BME280;12954;50.688;10.908;2022-08-11T12:08:41;96228.28;;;24.97;26.88
24892;BME280;12954;50.688;10.908;2022-08-11T12:11:12;96225.69;;;25.04;26.20
24892;BME280;12954;50.688;10.908;2022-08-11T12:14:02;96230.34;;;25.00;26.70
24892;BME280;12954;50.688;10.908;2022-08-11T12:16:38;96226.91;;;25.07;26.83
24892;BME280;12954;50.688;10.908;2022-08-11T12:19:10;96221.31;;;25.19;26.69
24892;BME280;12954;50.688;10.908;2022-08-11T12:21:40;96213.38;;;25.33;26.49
24892;BME280;12954;50.688;10.908;2022-08-11T12:24:31;96222.34;;;25.45;26.06
24892;BME280;12954;50.688;10.908;2022-08-11T12:27:20;96210.59;;;25.49;25.50
24892;BME280;12954;50.688;10.908;2022-08-11T12:29:53;96211.72;;;25.48;25.52
24892;BME280;12954;50.688;10.908;2022-08-11T12:32:24;96214.66;;;25.55;25.06
24892;BME280;12954;50.688;10.908;2022-08-11T12:34:55;96209.66;;;25.60;24.75
24892;BME280;12954;50.688;10.908;2022-08-11T12:37:29;96168.97;;;25.41;24.87
24892;BME280;12954;50.688;10.908;2022-08-11T12:40:00;96174.22;;;25.47;24.67
24892;BME280;12954;50.688;10.908;2022-08-11T12:43:11;96196.09;;;25.71;24.72
24892;BME280;12954;50.688;10.908;2022-08-11T12:46:24;96191.84;;;25.77;24.56
24892;BME280;12954;50.688;10.908;2022-08-11T12:49:00;96188.97;;;25.89;24.52
24892;BME280;12954;50.688;10.908;2022-08-11T12:52:02;96175.88;;;26.05;24.44
24892;BME280;12954;50.688;10.908;2022-08-11T12:54:47;96156.53;;;26.05;24.57
24892;BME280;12954;50.688;10.908;2022-08-11T12:57:22;96176.88;;;26.35;24.27
24892;BME280;12954;50.688;10.908;2022-08-11T13:00:13;96185.44;;;26.49;23.43
24892;BME280;12954;50.688;10.908;2022-08-11T13:02:59;96184.66;;;26.49;22.89
24892;BME280;12954;50.688;10.908;2022-08-11T13:05:46;96176.59;;;26.40;23.29
24892;BME280;12954;50.688;10.908;2022-08-11T13:08:16;96167.97;;;26.45;23.14
24892;BME280;12954;50.688;10.908;2022-08-11T13:10:46;96176.75;;;26.51;22.81
24892;BME280;12954;50.688;10.908;2022-08-11T13:13:35;96174.00;;;26.51;22.96
24892;BME280;12954;50.688;10.908;2022-08-11T13:16:27;96175.13;;;26.46;23.07
24892;BME280;12954;50.688;10.908;2022-08-11T13:18:57;96162.44;;;26.45;23.20
24892;BME280;12954;50.688;10.908;2022-08-11T13:21:27;96149.03;;;26.47;22.99
24892;BME280;12954;50.688;10.908;2022-08-11T13:23:57;96163.97;;;26.66;23.01
24892;BME280;12954;50.688;10.908;2022-08-11T13:26:31;96146.72;;;26.49;22.87
24892;BME280;12954;50.688;10.908;2022-08-11T13:29:16;96165.59;;;26.67;22.80
24892;BME280;12954;50.688;10.908;2022-08-11T13:31:47;96159.31;;;26.70;22.63
24892;BME280;12954;50.688;10.908;2022-08-11T13:34:18;96157.03;;;26.52;22.31
24892;BME280;12954;50.688;10.908;2022-08-11T13:36:49;96149.97;;;26.55;22.44
24892;BME280;12954;50.688;10.908;2022-08-11T13:39:19;96165.03;;;26.58;22.66
24892;BME280;12954;50.688;10.908;2022-08-11T13:41:51;96159.63;;;26.65;22.73
24892;BME280;12954;50.688;10.908;2022-08-11T13:44:21;96134.03;;;26.48;23.17
24892;BME280;12954;50.688;10.908;2022-08-11T13:46:56;96153.03;;;26.73;22.98
24892;BME280;12954;50.688;10.908;2022-08-11T13:49:28;96142.50;;;26.82;23.25
24892;BME280;12954;50.688;10.908;2022-08-11T13:51:58;96138.84;;;27.00;22.99
24892;BME280;12954;50.688;10.908;2022-08-11T13:54:30;96130.78;;;27.15;23.04
24892;BME280;12954;50.688;10.908;2022-08-11T13:57:02;96147.28;;;27.34;22.44
24892;BME280;12954;50.688;10.908;2022-08-11T13:59:36;96041.97;;;26.78;22.82
24892;BME280;12954;50.688;10.908;2022-08-11T14:02:23;96139.81;;;27.68;22.28
24892;BME280;12954;50.688;10.908;2022-08-11T14:04:59;96139.94;;;27.75;21.64
24892;BME280;12954;50.688;10.908;2022-08-11T14:07:34;96130.34;;;27.69;21.55
24892;BME280;12954;50.688;10.908;2022-08-11T14:10:06;96129.06;;;27.62;21.90
24892;BME280;12954;50.688;10.908;2022-08-11T14:12:36;96116.88;;;27.71;22.07
24892;BME280;12954;50.688;10.908;2022-08-11T14:15:28;96126.56;;;27.84;21.76
24892;BME280;12954;50.688;10.908;2022-08-11T14:18:03;96118.34;;;27.91;21.42
24892;BME280;12954;50.688;10.908;2022-08-11T14:20:34;96123.41;;;27.85;21.27
24892;BME280;12954;50.688;10.908;2022-08-11T14:23:18;96069.81;;;27.44;21.31
24892;BME280;12954;50.688;10.908;2022-08-11T14:25:50;96114.97;;;27.75;21.15
24892;BME280;12954;50.688;10.908;2022-08-11T14:28:37;96083.44;;;27.56;21.13
24892;BME280;12954;50.688;10.908;2022-08-11T14:31:12;96107.41;;;27.72;21.29
24892;BME280;12954;50.688;10.908;2022-08-11T14:33:43;96094.22;;;27.61;21.35
24892;BME280;12954;50.688;10.908;2022-08-11T14:36:32;96091.28;;;27.81;21.16
24892;BME280;12954;50.688;10.908;2022-08-11T14:39:06;96102.38;;;27.81;21.21
24892;BME280;12954;50.688;10.908;2022-08-11T14:41:40;96101.19;;;27.82;21.24
24892;BME280;12954;50.688;10.908;2022-08-11T14:44:41;96099.59;;;27.81;21.37
24892;BME280;12954;50.688;10.908;2022-08-11T14:47:29;96095.84;;;27.99;21.38
24892;BME280;12954;50.688;10.908;2022-08-11T14:50:01;96078.28;;;27.88;21.31
24892;BME280;12954;50.688;10.908;2022-08-11T14:52:44;96103.13;;;28.11;21.14
24892;BME280;12954;50.688;10.908;2022-08-11T14:55:13;96098.09;;;28.20;21.17
24892;BME280;12954;50.688;10.908;2022-08-11T14:58:00;96097.78;;;28.32;21.09
24892;BME280;12954;50.688;10.908;2022-08-11T15:00:31;96087.59;;;28.47;20.95
24892;BME280;12954;50.688;10.908;2022-08-11T15:03:02;96089.34;;;28.58;20.92
24892;BME280;12954;50.688;10.908;2022-08-11T15:05:43;96089.44;;;28.72;20.71
24892;BME280;12954;50.688;10.908;2022-08-11T15:08:25;96024.44;;;28.33;20.57